Time;durP1;ratioP1;P1;durP2;ratioP2;P2;SDS_P1;SDS_P2;PMS_P1;PMS_P2;Temp;Humidity;BMP_temperature;BMP_pressure;BME280_temperature;BME280_humidity;BME280_pressure;Samples;Min_cycle;Max_cycle;Signal;HPM_P1;HPM_P2
2022/08/06 00:00:58;;;;;;;30.13;28.73;;;20.90;67.30;;;;;;5055691;28;20557;-69
2022/08/06 00:03:25;;;;;;;30.23;28.63;;;20.90;67.50;;;;;;5062143;28;20466;-69
2022/08/06 00:05:52;;;;;;;29.27;27.87;;;20.90;67.30;;;;;;5063116;28;20558;-68
2022/08/06 00:08:19;;;;;;;30.57;29.17;;;20.90;67.60;;;;;;5060211;28;20476;-67
2022/08/06 00:10:47;;;;;;;30.30;28.90;;;20.90;67.70;;;;;;5059131;28;20550;-67
2022/08/06 00:13:14;;;;;;;29.53;28.23;;;20.90;67.70;;;;;;5058591;28;20596;-67
2022/08/06 00:15:41;;;;;;;31.60;30.20;;;20.90;67.60;;;;;;5063083;28;20547;-67
2022/08/06 00:18:08;;;;;;;30.23;28.90;;;20.90;67.90;;;;;;5065732;28;20555;-71
2022/08/06 00:20:35;;;;;;;29.83;28.53;;;20.90;67.20;;;;;;5059306;28;20958;-71
2022/08/06 00:23:02;;;;;;;29.23;27.93;;;21.00;66.20;;;;;;5058972;28;20468;-71
2022/08/06 00:25:30;;;;;;;29.13;27.73;;;21.10;66.00;;;;;;5057754;28;20451;-69
2022/08/06 00:27:58;;;;;;;29.00;27.70;;;21.20;65.30;;;;;;5063948;28;20575;-69
2022/08/06 00:30:25;;;;;;;30.53;29.23;;;21.20;65.60;;;;;;5061452;28;20474;-69
2022/08/06 00:32:54;;;;;;;30.80;29.40;;;21.20;65.90;;;;;;5060318;28;20538;-70
2022/08/06 00:35:21;;;;;;;31.20;29.80;;;21.30;65.20;;;;;;5052124;28;21288;-69
2022/08/06 00:37:48;;;;;;;31.40;30.10;;;21.30;64.80;;;;;;5061038;28;20479;-70
2022/08/06 00:40:19;;;;;;;30.27;28.87;;;21.30;64.60;;;;;;5061088;28;20574;-69
2022/08/06 00:42:46;;;;;;;31.10;29.70;;;21.40;64.00;;;;;;5062488;28;20539;-69
2022/08/06 00:45:15;;;;;;;31.40;30.00;;;21.30;63.50;;;;;;5063348;28;20524;-67
2022/08/06 00:47:42;;;;;;;29.70;28.40;;;21.20;64.00;;;;;;5065398;28;20887;-67
2022/08/06 00:50:09;;;;;;;28.97;27.57;;;21.10;64.10;;;;;;5060604;28;20518;-67
2022/08/06 00:52:36;;;;;;;30.27;28.97;;;21.20;64.00;;;;;;5062515;28;21062;-67
2022/08/06 00:55:04;;;;;;;28.97;27.67;;;21.20;64.10;;;;;;5062219;28;21061;-67
2022/08/06 00:57:31;;;;;;;29.60;28.20;;;21.10;64.00;;;;;;5063204;28;20583;-68
2022/08/06 00:59:58;;;;;;;30.23;28.93;;;21.10;64.00;;;;;;5062224;28;20473;-70
2022/08/06 01:02:26;;;;;;;30.50;29.10;;;21.00;63.50;;;;;;5061935;28;20543;-67
2022/08/06 01:04:53;;;;;;;30.10;28.80;;;21.00;63.80;;;;;;5058105;28;20549;-67
2022/08/06 01:07:20;;;;;;;32.00;30.60;;;20.80;63.70;;;;;;5061046;28;20530;-67
2022/08/06 01:09:48;;;;;;;30.17;28.87;;;20.70;63.80;;;;;;5057266;28;20997;-67
2022/08/06 01:12:15;;;;;;;31.40;30.03;;;20.80;63.50;;;;;;5061238;28;20458;-67
2022/08/06 01:14:42;;;;;;;32.40;30.90;;;20.90;62.90;;;;;;5064591;28;20467;-67
2022/08/06 01:17:18;;;;;;;33.50;32.00;;;20.70;63.00;;;;;;5066471;28;20550;-67
2022/08/06 01:19:59;;;;;;;31.53;30.00;;;20.60;63.20;;;;;;5052815;28;21183;-67
2022/08/06 01:22:43;;;;;;;30.63;29.23;;;20.60;63.10;;;;;;5066274;28;20478;-69
2022/08/06 01:25:37;;;;;;;30.20;28.90;;;20.50;63.10;;;;;;5063397;28;23106;-69
2022/08/06 01:28:11;;;;;;;33.30;31.90;;;20.60;63.30;;;;;;5064427;28;20453;-70
2022/08/06 01:30:43;;;;;;;31.50;30.10;;;20.70;63.00;;;;;;5067204;28;20510;-69
2022/08/06 01:33:15;;;;;;;30.37;28.93;;;20.70;63.00;;;;;;5066028;28;20458;-67
2022/08/06 01:35:45;;;;;;;31.00;29.50;;;20.80;62.70;;;;;;5064156;28;20474;-67
2022/08/06 01:38:18;;;;;;;31.17;29.57;;;20.90;62.30;;;;;;5060128;28;20580;-66
2022/08/06 01:40:48;;;;;;;31.17;29.80;;;20.90;62.40;;;;;;5067937;28;20470;-67
2022/08/06 01:43:20;;;;;;;31.40;29.90;;;21.00;61.80;;;;;;5061384;28;20516;-67
2022/08/06 01:45:48;;;;;;;30.30;29.00;;;20.90;62.10;;;;;;5063510;28;21047;-70
2022/08/06 01:48:20;;;;;;;31.73;30.33;;;20.90;61.70;;;;;;5062004;28;20461;-71
2022/08/06 01:50:50;;;;;;;29.87;28.40;;;20.80;61.90;;;;;;5064104;28;20562;-70
2022/08/06 01:53:29;;;;;;;30.70;29.30;;;20.70;61.80;;;;;;5063804;28;20461;-70
2022/08/06 01:56:01;;;;;;;29.80;28.47;;;20.60;62.10;;;;;;5065303;28;20559;-69
2022/08/06 01:58:34;;;;;;;31.00;29.60;;;20.70;62.20;;;;;;5065202;28;20482;-69
2022/08/06 02:01:04;;;;;;;30.23;28.70;;;20.70;61.80;;;;;;5065583;28;20478;-71
2022/08/06 02:03:36;;;;;;;30.10;28.70;;;20.50;62.30;;;;;;5059164;28;20489;-69
2022/08/06 02:06:05;;;;;;;35.43;33.50;;;20.40;62.60;;;;;;5062589;28;20820;-69
2022/08/06 02:08:35;;;;;;;44.60;42.37;;;20.20;63.10;;;;;;5063922;28;21036;-68
2022/08/06 02:11:03;;;;;;;29.70;28.50;;;20.20;63.20;;;;;;5065050;28;20474;-70
2022/08/06 02:13:34;;;;;;;30.50;29.17;;;20.30;63.00;;;;;;5066128;28;20480;-72
2022/08/06 02:16:04;;;;;;;32.10;30.63;;;20.30;63.00;;;;;;5066016;28;20503;-70
2022/08/06 02:18:37;;;;;;;30.80;29.50;;;20.30;62.90;;;;;;5062822;28;20566;-69
2022/08/06 02:21:07;;;;;;;30.50;29.20;;;20.40;62.90;;;;;;5065546;28;20475;-69
2022/08/06 02:23:36;;;;;;;31.40;30.10;;;20.40;62.90;;;;;;5064282;28;20547;-69
2022/08/06 02:26:04;;;;;;;31.97;30.57;;;20.40;62.70;;;;;;5066109;28;20738;-69
2022/08/06 02:28:34;;;;;;;30.77;29.47;;;20.30;63.10;;;;;;5059702;28;20468;-71
2022/08/06 02:31:01;;;;;;;31.20;30.00;;;20.20;63.20;;;;;;5064672;28;21179;-70
2022/08/06 02:33:29;;;;;;;31.10;29.80;;;20.20;63.20;;;;;;5064203;28;20566;-69
2022/08/06 02:36:03;;;;;;;31.83;30.33;;;20.20;63.20;;;;;;5065774;28;20568;-69
2022/08/06 02:38:36;;;;;;;32.80;31.10;;;20.10;63.40;;;;;;5060259;28;20511;-69
2022/08/06 02:41:12;;;;;;;32.80;31.30;;;20.10;63.50;;;;;;5063516;28;20489;-69
2022/08/06 02:43:43;;;;;;;31.37;30.00;;;20.10;63.60;;;;;;5066282;28;20791;-69
2022/08/06 02:46:15;;;;;;;32.50;31.00;;;20.10;63.60;;;;;;5066005;28;20555;-70
2022/08/06 02:48:48;;;;;;;32.47;30.93;;;20.10;63.60;;;;;;5064555;28;20458;-69
2022/08/06 02:51:19;;;;;;;30.93;29.30;;;20.10;63.70;;;;;;5058933;28;20476;-71
2022/08/06 02:53:55;;;;;;;30.77;29.47;;;20.00;64.00;;;;;;5058280;28;20911;-70
2022/08/06 02:56:25;;;;;;;30.57;29.27;;;20.00;64.10;;;;;;5064474;28;20484;-70
2022/08/06 02:58:56;;;;;;;32.57;31.17;;;20.10;64.20;;;;;;5055583;28;21065;-70
2022/08/06 03:01:27;;;;;;;29.20;28.00;;;20.00;64.40;;;;;;5064428;28;20573;-70
2022/08/06 03:03:58;;;;;;;31.60;30.00;;;20.00;64.50;;;;;;5065652;28;20853;-69
2022/08/06 03:06:27;;;;;;;33.77;32.30;;;20.10;64.10;;;;;;5063960;28;21302;-69
2022/08/06 03:08:56;;;;;;;31.37;29.70;;;19.90;64.40;;;;;;5059520;28;21023;-69
2022/08/06 03:11:25;;;;;;;30.53;29.13;;;20.00;64.60;;;;;;5063694;28;20827;-69
2022/08/06 03:13:55;;;;;;;30.53;29.13;;;20.00;64.50;;;;;;5066163;28;20579;-69
2022/08/06 03:16:23;;;;;;;30.00;28.70;;;20.00;64.50;;;;;;5058453;28;20452;-69
2022/08/06 03:18:50;;;;;;;30.50;29.10;;;19.90;65.20;;;;;;5061371;28;20556;-71
2022/08/06 03:21:20;;;;;;;30.00;28.70;;;19.70;65.50;;;;;;5060521;28;20481;-69
2022/08/06 03:23:49;;;;;;;31.50;30.20;;;19.70;65.70;;;;;;5063936;28;20447;-69
2022/08/06 03:26:16;;;;;;;33.93;32.10;;;19.70;65.80;;;;;;5065425;28;20461;-69
2022/08/06 03:28:44;;;;;;;30.83;29.53;;;19.60;65.80;;;;;;5059508;28;20459;-69
2022/08/06 03:31:13;;;;;;;33.33;31.73;;;19.60;65.80;;;;;;5061776;28;20555;-70
2022/08/06 03:33:40;;;;;;;30.97;29.57;;;19.60;66.00;;;;;;5059059;28;21021;-70
2022/08/06 03:36:09;;;;;;;35.60;33.90;;;19.50;66.20;;;;;;5059614;28;21000;-69
2022/08/06 03:38:40;;;;;;;31.30;30.00;;;19.30;66.60;;;;;;5059018;28;20500;-69
2022/08/06 03:41:09;;;;;;;32.40;30.83;;;19.30;66.90;;;;;;5064701;28;20498;-69
2022/08/06 03:43:36;;;;;;;33.40;32.00;;;19.30;66.90;;;;;;5064393;28;20982;-74
2022/08/06 03:46:06;;;;;;;36.47;34.87;;;19.40;66.70;;;;;;5065009;28;20458;-69
2022/08/06 03:48:39;;;;;;;37.70;36.10;;;19.40;66.60;;;;;;5064921;28;20474;-69
2022/08/06 03:51:12;;;;;;;31.90;30.50;;;19.50;66.50;;;;;;5055420;28;20923;-69
2022/08/06 03:53:42;;;;;;;31.70;30.30;;;19.50;66.80;;;;;;5064563;28;20953;-69
2022/08/06 03:56:12;;;;;;;30.70;29.30;;;19.50;66.60;;;;;;5067143;28;20456;-69
2022/08/06 03:58:41;;;;;;;32.27;30.80;;;19.60;66.40;;;;;;5057532;28;21029;-69
2022/08/06 04:01:12;;;;;;;34.00;32.50;;;19.50;66.70;;;;;;5061349;28;20568;-69
2022/08/06 04:03:42;;;;;;;36.73;35.13;;;19.40;66.80;;;;;;5060320;28;20532;-67
2022/08/06 04:06:12;;;;;;;30.87;29.57;;;19.50;66.70;;;;;;5061156;28;20892;-67
2022/08/06 04:08:41;;;;;;;32.90;31.13;;;19.40;66.90;;;;;;5059863;28;20506;-67
2022/08/06 04:11:09;;;;;;;33.30;31.80;;;19.30;67.30;;;;;;5063871;28;20555;-67
2022/08/06 04:13:38;;;;;;;34.90;33.43;;;19.30;67.30;;;;;;5059763;28;20622;-67
2022/08/06 04:16:07;;;;;;;32.10;30.70;;;19.30;67.40;;;;;;5062659;28;20536;-67
2022/08/06 04:18:36;;;;;;;33.70;32.20;;;19.20;68.10;;;;;;5054445;28;20476;-69
2022/08/06 04:21:07;;;;;;;33.90;32.40;;;19.30;67.70;;;;;;5061011;28;20916;-67
2022/08/06 04:23:34;;;;;;;48.80;46.40;;;19.40;67.40;;;;;;5061959;28;20554;-67
2022/08/06 04:26:05;;;;;;;35.20;33.70;;;19.40;67.40;;;;;;5065148;28;20539;-67
2022/08/06 04:28:36;;;;;;;33.33;31.83;;;19.50;67.20;;;;;;5058429;28;20463;-67
2022/08/06 04:31:04;;;;;;;39.57;37.57;;;19.40;67.50;;;;;;5058800;28;21165;-67
2022/08/06 04:33:35;;;;;;;38.87;36.97;;;19.40;67.50;;;;;;5054100;28;20547;-67
2022/08/06 04:36:05;;;;;;;33.03;31.00;;;19.30;67.80;;;;;;5059458;28;20493;-67
2022/08/06 04:38:33;;;;;;;33.13;31.73;;;19.20;68.10;;;;;;5057244;28;20482;-67
2022/08/06 04:41:01;;;;;;;39.30;37.37;;;19.30;68.00;;;;;;5054653;28;20529;-67
2022/08/06 04:43:29;;;;;;;31.10;29.70;;;19.20;68.40;;;;;;5062732;28;20496;-67
2022/08/06 04:45:57;;;;;;;41.63;39.73;;;19.30;68.30;;;;;;5066864;28;20549;-68
2022/08/06 04:48:25;;;;;;;38.17;36.43;;;19.40;67.50;;;;;;5060905;28;20912;-67
2022/08/06 04:50:52;;;;;;;37.37;35.43;;;19.50;67.20;;;;;;5062795;28;20513;-67
2022/08/06 04:53:22;;;;;;;35.27;33.83;;;19.60;67.00;;;;;;5064580;28;20957;-66
2022/08/06 04:55:49;;;;;;;36.37;34.77;;;19.60;66.90;;;;;;5066704;28;20452;-67
2022/08/06 04:58:17;;;;;;;40.67;38.83;;;19.60;67.00;;;;;;5060776;28;20563;-67
2022/08/06 05:00:46;;;;;;;34.53;32.93;;;19.50;67.20;;;;;;5067628;28;20559;-67
2022/08/06 05:03:14;;;;;;;33.33;31.77;;;19.50;67.30;;;;;;5066294;28;20941;-67
2022/08/06 05:05:47;;;;;;;33.40;31.80;;;19.60;67.30;;;;;;5064563;28;20460;-67
2022/08/06 05:08:15;;;;;;;32.43;31.00;;;19.60;67.40;;;;;;5066150;28;20550;-67
2022/08/06 05:10:49;;;;;;;33.10;31.50;;;19.60;67.20;;;;;;5067606;28;20563;-67
2022/08/06 05:13:20;;;;;;;31.17;29.67;;;19.60;67.60;;;;;;5067541;28;20466;-67
2022/08/06 05:15:52;;;;;;;30.43;29.03;;;19.70;67.30;;;;;;5066812;28;20537;-67
2022/08/06 05:18:22;;;;;;;47.33;45.00;;;19.80;66.90;;;;;;5067244;28;20915;-72
2022/08/06 05:20:52;;;;;;;34.03;32.27;;;19.70;67.20;;;;;;5066246;28;20482;-72
2022/08/06 05:23:21;;;;;;;28.20;26.80;;;19.60;67.50;;;;;;5065090;28;20953;-70
2022/08/06 05:25:50;;;;;;;43.83;41.77;;;19.50;67.90;;;;;;5069051;28;20469;-69
2022/08/06 05:28:17;;;;;;;33.50;31.83;;;19.50;67.90;;;;;;5061365;28;20533;-69
2022/08/06 05:30:45;;;;;;;45.97;43.60;;;19.60;67.70;;;;;;5065384;28;21029;-69
2022/08/06 05:33:12;;;;;;;35.03;33.40;;;19.60;67.80;;;;;;5061623;28;20470;-70
2022/08/06 05:35:39;;;;;;;30.90;29.40;;;19.70;67.50;;;;;;5058901;28;20459;-70
2022/08/06 05:38:06;;;;;;;31.87;30.57;;;19.70;67.40;;;;;;5064033;28;20560;-70
2022/08/06 05:40:36;;;;;;;43.50;41.00;;;19.70;67.30;;;;;;5059676;28;20865;-70
2022/08/06 05:43:04;;;;;;;31.67;30.07;;;19.80;67.50;;;;;;5058053;28;21042;-69
2022/08/06 05:45:32;;;;;;;31.57;30.17;;;19.80;67.20;;;;;;5057284;28;20494;-69
2022/08/06 05:48:01;;;;;;;32.57;31.07;;;19.80;67.60;;;;;;5060565;28;20559;-69
2022/08/06 05:50:34;;;;;;;32.20;30.70;;;20.10;66.90;;;;;;5065084;28;20527;-68
2022/08/06 05:53:05;;;;;;;30.00;28.57;;;19.90;67.20;;;;;;5066001;28;20963;-69
2022/08/06 05:55:38;;;;;;;32.97;31.07;;;19.70;67.50;;;;;;5065829;28;20484;-67
2022/08/06 05:58:11;;;;;;;34.50;32.83;;;19.60;68.00;;;;;;5061652;28;20567;-66
2022/08/06 06:00:41;;;;;;;32.80;31.40;;;19.50;68.50;;;;;;5061174;28;20478;-67
2022/08/06 06:03:12;;;;;;;37.03;34.80;;;19.60;68.10;;;;;;5059076;28;20775;-67
2022/08/06 06:05:40;;;;;;;31.47;30.07;;;19.70;68.00;;;;;;5056443;28;20460;-69
2022/08/06 06:08:08;;;;;;;40.57;38.57;;;19.60;68.30;;;;;;5057007;28;20462;-70
2022/08/06 06:10:36;;;;;;;32.70;31.20;;;19.60;68.30;;;;;;5060604;28;20994;-70
2022/08/06 06:13:04;;;;;;;28.40;27.10;;;19.50;68.60;;;;;;5056585;28;20564;-69
2022/08/06 06:15:38;;;;;;;31.40;30.00;;;19.50;68.80;;;;;;5057180;28;20460;-69
2022/08/06 06:18:16;;;;;;;31.70;30.20;;;19.50;68.90;;;;;;5056890;28;20452;-70
2022/08/06 06:20:53;;;;;;;31.70;30.30;;;19.50;69.10;;;;;;5060632;28;20478;-70
2022/08/06 06:23:30;;;;;;;38.63;36.83;;;19.70;68.40;;;;;;5049382;28;20460;-69
2022/08/06 06:26:04;;;;;;;44.53;42.17;;;19.80;68.30;;;;;;5051335;28;20456;-69
2022/08/06 06:28:38;;;;;;;28.80;27.20;;;19.80;68.20;;;;;;5056188;28;20460;-69
2022/08/06 06:31:12;;;;;;;42.80;40.73;;;19.90;68.00;;;;;;5065689;28;20489;-68
2022/08/06 06:33:43;;;;;;;32.47;30.87;;;19.90;68.20;;;;;;5062520;28;20496;-69
2022/08/06 06:36:21;;;;;;;31.90;30.10;;;20.00;67.60;;;;;;5054728;28;20891;-69
2022/08/06 06:38:58;;;;;;;29.77;28.30;;;20.10;67.30;;;;;;5054634;28;20487;-70
2022/08/06 06:41:37;;;;;;;40.67;38.83;;;20.00;67.70;;;;;;5056388;28;20611;-68
2022/08/06 06:44:12;;;;;;;31.70;30.23;;;20.10;67.50;;;;;;5057665;28;20549;-68
2022/08/06 06:46:46;;;;;;;33.93;32.00;;;20.20;67.70;;;;;;5058502;28;20446;-69
2022/08/06 06:49:18;;;;;;;37.93;36.23;;;20.40;66.50;;;;;;5054141;28;20454;-70
2022/08/06 06:51:48;;;;;;;37.43;35.50;;;20.30;66.60;;;;;;5058331;28;20553;-72
2022/08/06 06:54:21;;;;;;;32.10;30.50;;;20.30;66.80;;;;;;5064900;28;20533;-70
2022/08/06 06:56:50;;;;;;;44.43;42.13;;;20.10;67.20;;;;;;5061854;28;20463;-70
2022/08/06 06:59:21;;;;;;;38.80;36.90;;;20.30;66.70;;;;;;5063509;28;21235;-71
2022/08/06 07:01:51;;;;;;;30.40;28.83;;;20.40;66.70;;;;;;5065049;28;20776;-70
2022/08/06 07:04:19;;;;;;;32.60;31.10;;;20.60;66.20;;;;;;5060568;28;20547;-71
2022/08/06 07:06:48;;;;;;;32.17;30.67;;;20.80;65.30;;;;;;5063528;28;20829;-72
2022/08/06 07:09:18;;;;;;;31.83;30.30;;;20.80;65.80;;;;;;5063515;28;20460;-71
2022/08/06 07:11:46;;;;;;;29.97;28.37;;;20.90;65.10;;;;;;5062593;28;20497;-73
2022/08/06 07:14:15;;;;;;;32.30;30.80;;;20.80;65.40;;;;;;5063851;28;20550;-68
2022/08/06 07:16:44;;;;;;;31.30;29.70;;;20.70;66.00;;;;;;5062749;28;21376;-67
2022/08/06 07:19:14;;;;;;;46.13;43.93;;;20.80;65.80;;;;;;5063475;28;20486;-68
2022/08/06 07:21:42;;;;;;;30.03;28.63;;;21.00;64.90;;;;;;5064202;28;20543;-68
2022/08/06 07:24:11;;;;;;;33.30;31.67;;;20.70;65.50;;;;;;5060544;28;21008;-68
2022/08/06 07:26:39;;;;;;;31.63;30.03;;;20.50;66.40;;;;;;5060855;28;20456;-68
2022/08/06 07:29:09;;;;;;;34.40;32.70;;;20.60;66.60;;;;;;5058352;28;20459;-68
2022/08/06 07:31:37;;;;;;;28.73;27.33;;;20.60;66.50;;;;;;5059889;28;20458;-68
2022/08/06 07:34:04;;;;;;;30.43;29.00;;;20.70;65.70;;;;;;5061543;28;20552;-68
2022/08/06 07:36:36;;;;;;;34.33;32.63;;;20.70;66.00;;;;;;5052803;28;20459;-67
2022/08/06 07:39:08;;;;;;;30.90;29.40;;;20.70;65.60;;;;;;5047471;28;20478;-67
2022/08/06 07:41:35;;;;;;;29.63;28.23;;;20.80;65.20;;;;;;5058421;28;20944;-67
2022/08/06 07:44:04;;;;;;;30.03;28.53;;;20.80;65.10;;;;;;5050711;28;20488;-67
2022/08/06 07:46:38;;;;;;;45.13;42.97;;;20.80;65.30;;;;;;5055914;28;20462;-67
2022/08/06 07:49:07;;;;;;;29.40;27.90;;;20.70;65.70;;;;;;5055133;28;20458;-67
2022/08/06 07:51:41;;;;;;;29.60;28.00;;;20.70;65.70;;;;;;5058624;28;20553;-67
2022/08/06 07:54:09;;;;;;;38.03;36.03;;;20.80;65.40;;;;;;5059220;28;20919;-67
2022/08/06 07:56:38;;;;;;;31.90;30.40;;;20.90;64.60;;;;;;5061572;28;20947;-67
2022/08/06 07:59:08;;;;;;;46.80;44.40;;;20.90;65.30;;;;;;5057726;28;20470;-67
2022/08/06 08:01:36;;;;;;;33.63;32.03;;;20.90;65.10;;;;;;5063146;28;20459;-67
2022/08/06 08:06:52;;;;;;;42.53;40.37;;;21.10;64.80;;;;;;5056971;28;20615;-68
2022/08/06 08:09:21;;;;;;;29.03;27.63;;;20.90;65.10;;;;;;5062606;28;20452;-68
2022/08/06 08:11:50;;;;;;;30.73;29.20;;;21.00;65.00;;;;;;5068467;28;20451;-68
2022/08/06 08:14:20;;;;;;;39.93;37.70;;;21.00;64.70;;;;;;5051380;28;20581;-68
2022/08/06 08:16:48;;;;;;;42.23;40.03;;;21.20;64.20;;;;;;5058587;28;20544;-68
2022/08/06 08:19:23;;;;;;;36.20;34.30;;;21.30;64.00;;;;;;5059198;28;20552;-68
2022/08/06 08:21:52;;;;;;;35.27;33.47;;;21.70;63.40;;;;;;5053680;28;20469;-68
2022/08/06 08:24:19;;;;;;;38.27;36.20;;;22.00;62.30;;;;;;5054578;28;20548;-67
2022/08/06 08:26:46;;;;;;;30.10;28.47;;;22.20;61.70;;;;;;5053640;28;20554;-68
2022/08/06 08:29:13;;;;;;;44.80;42.53;;;22.20;60.10;;;;;;5049086;28;21023;-67
2022/08/06 08:31:40;;;;;;;34.67;32.80;;;21.90;61.50;;;;;;5057845;28;20562;-67
2022/08/06 08:34:07;;;;;;;30.67;29.03;;;22.00;61.10;;;;;;5061948;28;20561;-68
2022/08/06 08:36:34;;;;;;;30.77;29.37;;;21.90;61.50;;;;;;5060468;28;20454;-68
2022/08/06 08:39:03;;;;;;;49.77;47.47;;;21.90;61.20;;;;;;5054625;28;20454;-67
2022/08/06 08:41:34;;;;;;;29.90;28.50;;;22.10;61.20;;;;;;5063075;28;20864;-67
2022/08/06 08:44:05;;;;;;;36.20;34.30;;;22.20;60.50;;;;;;5052581;28;20965;-67
2022/08/06 08:46:35;;;;;;;38.33;36.43;;;22.40;60.40;;;;;;5064573;28;21014;-67
2022/08/06 08:49:03;;;;;;;36.03;34.07;;;22.50;60.20;;;;;;5060182;28;20454;-67
2022/08/06 08:51:33;;;;;;;30.10;28.20;;;22.40;60.70;;;;;;5057202;28;20470;-67
2022/08/06 08:54:03;;;;;;;30.03;28.63;;;22.90;59.60;;;;;;5060379;28;20537;-68
2022/08/06 08:56:30;;;;;;;30.50;28.90;;;23.10;58.60;;;;;;5068357;28;21004;-68
2022/08/06 08:58:57;;;;;;;34.07;32.30;;;23.20;58.50;;;;;;5063769;28;20491;-67
2022/08/06 09:01:25;;;;;;;31.40;29.90;;;23.30;56.80;;;;;;5069616;28;20482;-68
2022/08/06 09:03:52;;;;;;;43.40;41.20;;;23.20;57.10;;;;;;5059316;28;20456;-67
2022/08/06 09:06:21;;;;;;;37.87;36.07;;;23.20;57.20;;;;;;5056757;28;20450;-67
2022/08/06 09:08:48;;;;;;;31.07;29.47;;;23.30;57.60;;;;;;5065275;28;20534;-67
2022/08/06 09:11:17;;;;;;;34.43;32.63;;;23.20;57.70;;;;;;5062521;28;20474;-67
2022/08/06 09:13:43;;;;;;;33.83;31.37;;;23.20;58.60;;;;;;5063145;28;20579;-67
2022/08/06 09:16:10;;;;;;;33.67;32.07;;;23.50;58.50;;;;;;5062470;28;21051;-68
2022/08/06 09:18:38;;;;;;;35.47;33.47;;;23.70;56.90;;;;;;5064894;28;20501;-68
2022/08/06 09:21:05;;;;;;;31.80;30.00;;;23.80;56.90;;;;;;5054039;28;20598;-67
2022/08/06 09:23:32;;;;;;;34.30;32.80;;;23.90;59.30;;;;;;5061161;28;20458;-68
2022/08/06 09:26:05;;;;;;;37.93;36.07;;;24.10;56.50;;;;;;5067363;28;20535;-68
2022/08/06 09:28:36;;;;;;;31.67;30.20;;;24.20;55.90;;;;;;5064465;28;20562;-67
2022/08/06 09:31:07;;;;;;;34.90;33.40;;;24.20;55.10;;;;;;5068985;28;21008;-68
2022/08/06 09:33:38;;;;;;;44.50;42.40;;;24.40;53.70;;;;;;5064061;28;20456;-67
2022/08/06 09:36:07;;;;;;;47.20;44.90;;;24.00;54.80;;;;;;5050992;28;20470;-69
2022/08/06 09:38:47;;;;;;;34.67;33.17;;;23.70;55.10;;;;;;5060841;28;21092;-67
2022/08/06 09:41:14;;;;;;;33.03;31.40;;;23.90;54.40;;;;;;5053033;28;20479;-67
2022/08/06 09:43:43;;;;;;;37.40;35.70;;;23.90;54.70;;;;;;5058616;28;20456;-69
2022/08/06 09:46:10;;;;;;;50.27;47.83;;;24.30;53.30;;;;;;5063203;28;20598;-70
2022/08/06 09:48:37;;;;;;;34.87;33.27;;;24.30;53.60;;;;;;5061228;28;20546;-71
2022/08/06 09:51:04;;;;;;;34.00;32.33;;;24.20;53.90;;;;;;5061203;28;20468;-69
2022/08/06 09:53:31;;;;;;;31.67;30.27;;;24.30;54.10;;;;;;5058722;28;21042;-70
2022/08/06 09:55:58;;;;;;;34.93;33.13;;;24.20;54.20;;;;;;5064678;28;20547;-69
2022/08/06 09:58:31;;;;;;;31.90;30.00;;;23.90;55.60;;;;;;5058993;28;20543;-70
2022/08/06 10:01:12;;;;;;;41.70;39.50;;;24.10;55.30;;;;;;5053135;28;20485;-69
2022/08/06 10:03:40;;;;;;;52.70;49.93;;;24.50;54.80;;;;;;5061787;28;20464;-70
2022/08/06 10:06:09;;;;;;;51.57;48.97;;;25.00;52.80;;;;;;5066957;28;20917;-71
2022/08/06 10:08:36;;;;;;;34.23;32.63;;;25.10;51.70;;;;;;5061931;28;20455;-72
2022/08/06 10:11:03;;;;;;;31.03;29.67;;;24.60;52.80;;;;;;5056712;28;20559;-71
2022/08/06 10:13:31;;;;;;;37.87;36.00;;;24.60;52.90;;;;;;5056965;28;22618;-70
2022/08/06 10:16:01;;;;;;;50.53;48.17;;;24.70;52.70;;;;;;5059108;28;20459;-70
2022/08/06 10:18:37;;;;;;;39.37;37.50;;;24.80;51.80;;;;;;5062529;28;20763;-71
2022/08/06 10:21:06;;;;;;;36.30;34.50;;;24.60;51.30;;;;;;5056981;28;20483;-71
2022/08/06 10:23:34;;;;;;;36.20;34.60;;;24.60;52.30;;;;;;5057333;28;20940;-71
2022/08/06 10:26:03;;;;;;;37.37;35.67;;;24.70;52.30;;;;;;5060171;28;20886;-70
2022/08/06 10:28:32;;;;;;;33.50;32.00;;;24.40;52.70;;;;;;5060458;28;20757;-71
2022/08/06 10:31:03;;;;;;;37.90;36.10;;;24.40;52.90;;;;;;5060712;28;20469;-71
2022/08/06 10:33:33;;;;;;;53.57;51.37;;;24.50;53.10;;;;;;5057872;28;20877;-70
2022/08/06 10:36:04;;;;;;;49.53;46.90;;;24.50;52.70;;;;;;5064006;28;20566;-70
2022/08/06 10:38:35;;;;;;;33.37;31.87;;;24.60;52.80;;;;;;5063754;28;20888;-70
2022/08/06 10:41:07;;;;;;;41.83;39.83;;;24.80;51.20;;;;;;5065406;28;20563;-70
2022/08/06 10:43:36;;;;;;;32.20;30.80;;;24.70;50.30;;;;;;5061155;28;20461;-70
2022/08/06 10:46:06;;;;;;;43.97;41.70;;;24.30;51.70;;;;;;5064504;28;20456;-70
2022/08/06 10:48:35;;;;;;;35.97;34.40;;;24.30;52.20;;;;;;5052014;28;20499;-70
2022/08/06 10:51:03;;;;;;;39.43;37.70;;;24.40;52.20;;;;;;5062631;28;20572;-70
2022/08/06 10:53:31;;;;;;;32.13;30.53;;;24.60;51.20;;;;;;5063045;28;20468;-71
2022/08/06 10:56:03;;;;;;;46.03;43.90;;;24.70;50.50;;;;;;5060749;28;20587;-71
2022/08/06 10:58:30;;;;;;;33.50;31.80;;;24.60;51.00;;;;;;5066588;28;20918;-70
2022/08/06 11:00:59;;;;;;;45.10;42.27;;;24.40;50.70;;;;;;5067858;28;20493;-70
2022/08/06 11:03:38;;;;;;;37.83;35.80;;;24.50;50.90;;;;;;5060572;28;20464;-71
2022/08/06 11:06:26;;;;;;;48.70;46.03;;;24.50;51.10;;;;;;5065997;28;20469;-70
2022/08/06 11:09:06;;;;;;;35.93;34.23;;;25.00;50.50;;;;;;5060495;28;20595;-70
2022/08/06 11:11:52;;;;;;;37.67;35.87;;;24.90;50.40;;;;;;5069927;28;20465;-70
2022/08/06 11:14:20;;;;;;;44.70;42.23;;;25.20;50.60;;;;;;5059940;28;20465;-70
2022/08/06 11:16:57;;;;;;;31.50;30.10;;;25.20;50.20;;;;;;5064010;28;20461;-71
2022/08/06 11:19:42;;;;;;;34.60;32.90;;;25.20;50.50;;;;;;5052722;28;20565;-70
2022/08/06 11:22:32;;;;;;;33.67;32.03;;;25.60;50.30;;;;;;5065444;28;20462;-70
2022/08/06 11:24:59;;;;;;;35.03;33.33;;;25.90;48.80;;;;;;5065437;28;20545;-70
2022/08/06 11:27:48;;;;;;;41.37;39.37;;;26.20;48.20;;;;;;5064906;28;20560;-70
2022/08/06 11:30:15;;;;;;;33.67;32.07;;;26.10;47.50;;;;;;5058893;28;20478;-70
2022/08/06 11:32:47;;;;;;;53.30;50.47;;;25.90;48.10;;;;;;5061184;28;20538;-70
2022/08/06 11:35:41;;;;;;;40.37;38.27;;;25.90;47.60;;;;;;5057873;28;20546;-71
2022/08/06 11:38:10;;;;;;;32.13;30.70;;;26.10;47.70;;;;;;5059694;28;20480;-71
2022/08/06 11:40:57;;;;;;;36.27;34.60;;;26.00;46.80;;;;;;5059341;28;20482;-70
2022/08/06 11:43:43;;;;;;;50.20;47.70;;;25.80;47.80;;;;;;5054611;28;20549;-70
2022/08/06 11:46:25;;;;;;;39.03;37.20;;;25.80;48.10;;;;;;5055830;28;20461;-71
2022/08/06 11:49:15;;;;;;;45.67;43.07;;;25.50;48.80;;;;;;5057530;28;20558;-71
2022/08/06 11:51:45;;;;;;;37.47;35.67;;;25.60;49.30;;;;;;5062375;28;20558;-71
2022/08/06 11:54:13;;;;;;;32.13;30.63;;;25.60;49.30;;;;;;5057001;28;20458;-71
2022/08/06 11:57:18;;;;;;;32.93;31.43;;;25.40;49.60;;;;;;5060440;28;20467;-69
2022/08/06 11:59:48;;;;;;;42.00;39.83;;;25.00;50.20;;;;;;5055738;28;20534;-69
2022/08/06 12:02:17;;;;;;;36.97;35.17;;;24.90;50.50;;;;;;5049787;28;20452;-71
2022/08/06 12:04:46;;;;;;;31.20;29.80;;;25.10;50.70;;;;;;5055605;28;20449;-70
2022/08/06 12:07:21;;;;;;;47.97;45.30;;;25.30;50.40;;;;;;5058039;28;20461;-71
2022/08/06 12:09:59;;;;;;;38.70;36.73;;;25.40;49.80;;;;;;5060625;28;20494;-70
2022/08/06 12:12:37;;;;;;;41.17;38.97;;;25.40;49.40;;;;;;5064100;28;20464;-71
2022/08/06 12:15:38;;;;;;;43.17;40.97;;;25.40;49.30;;;;;;5054856;28;20465;-70
2022/08/06 12:18:05;;;;;;;31.53;30.03;;;25.50;49.40;;;;;;5058800;28;20580;-71
2022/08/06 12:20:35;;;;;;;46.13;43.83;;;25.40;49.40;;;;;;5052676;28;20510;-71
2022/08/06 12:23:05;;;;;;;35.40;33.70;;;25.20;50.20;;;;;;5063755;28;20947;-70
2022/08/06 12:25:34;;;;;;;42.23;39.80;;;25.30;49.80;;;;;;5056256;28;20596;-71
2022/08/06 12:28:01;;;;;;;39.60;37.77;;;25.60;49.10;;;;;;5058174;28;21043;-71
2022/08/06 12:30:40;;;;;;;37.33;35.30;;;25.80;48.70;;;;;;5062207;28;20580;-70
2022/08/06 12:33:08;;;;;;;52.70;50.10;;;26.10;48.10;;;;;;5056740;28;20454;-70
2022/08/06 12:35:35;;;;;;;46.13;43.93;;;26.30;47.30;;;;;;5060748;28;20447;-71
2022/08/06 12:38:03;;;;;;;39.13;37.23;;;26.10;47.50;;;;;;5058814;28;20561;-71
2022/08/06 12:40:31;;;;;;;33.50;31.97;;;25.70;48.30;;;;;;5060000;28;20613;-71
2022/08/06 12:43:10;;;;;;;49.87;47.33;;;25.60;48.40;;;;;;5056058;28;20816;-70
2022/08/06 12:45:39;;;;;;;43.23;41.13;;;25.50;49.10;;;;;;5055210;28;20951;-70
2022/08/06 12:48:07;;;;;;;36.10;34.40;;;25.10;50.00;;;;;;5058815;28;20465;-70